Terminal Aerodrome Forecast
Issued by NWS

Home | Current Version | Previous Version | Text Only | Print | Product List | Glossary On
Versions: 1 2 3 4 5 6 7 8 9 10 11 12
277
FTUS43 KMQT 192321
TAFIWD
TAF
KIWD 192321Z 2000/2024 19011KT P6SM SKC
     FM200300 20011KT P6SM SKC WS010/22040KT
     FM201000 20008KT P6SM FEW250
     FM201800 19012G18KT P6SM SKC=

USA.gov is the U.S. government's official web portal to all federal, state and local government web resources and services.